sensor_id;sensor_type;location;lat;lon;timestamp;temperature;humidity
28725;DHT22;43472;48.980;9.646;2022-12-07T00:04:36;5.90;99.90
28725;DHT22;43472;48.980;9.646;2022-12-07T00:09:37;5.90;99.90
28725;DHT22;43472;48.980;9.646;2022-12-07T00:14:40;5.80;99.90
28725;DHT22;43472;48.980;9.646;2022-12-07T00:19:42;5.80;99.90
28725;DHT22;43472;48.980;9.646;2022-12-07T00:24:43;5.90;99.90
28725;DHT22;43472;48.980;9.646;2022-12-07T00:29:45;5.90;99.90
28725;DHT22;43472;48.980;9.646;2022-12-07T00:34:47;5.80;99.90
28725;DHT22;43472;48.980;9.646;2022-12-07T00:39:48;5.80;99.90
28725;DHT22;43472;48.980;9.646;2022-12-07T00:44:50;5.70;99.90
28725;DHT22;43472;48.980;9.646;2022-12-07T00:49:52;5.40;99.90
28725;DHT22;43472;48.980;9.646;2022-12-07T00:59:56;5.70;99.90
28725;DHT22;43472;48.980;9.646;2022-12-07T01:04:59;5.70;99.90
28725;DHT22;43472;48.980;9.646;2022-12-07T01:10:01;5.70;99.90
28725;DHT22;43472;48.980;9.646;2022-12-07T01:15:04;5.60;99.90
28725;DHT22;43472;48.980;9.646;2022-12-07T01:20:06;5.60;99.90
28725;DHT22;43472;48.980;9.646;2022-12-07T01:25:10;5.70;99.90
28725;DHT22;43472;48.980;9.646;2022-12-07T01:30:12;5.60;99.90
28725;DHT22;43472;48.980;9.646;2022-12-07T01:35:14;5.60;99.90
28725;DHT22;43472;48.980;9.646;2022-12-07T01:40:17;5.70;99.90
28725;DHT22;43472;48.980;9.646;2022-12-07T01:45:36;5.60;99.90
28725;DHT22;43472;48.980;9.646;2022-12-07T01:50:38;5.60;99.90
28725;DHT22;43472;48.980;9.646;2022-12-07T01:55:44;5.50;99.90
28725;DHT22;43472;48.980;9.646;2022-12-07T02:00:47;5.60;99.90
28725;DHT22;43472;48.980;9.646;2022-12-07T02:05:51;5.50;99.90
28725;DHT22;43472;48.980;9.646;2022-12-07T02:10:55;5.50;99.90
28725;DHT22;43472;48.980;9.646;2022-12-07T02:21:38;5.40;99.90
28725;DHT22;43472;48.980;9.646;2022-12-07T02:27:01;5.40;99.90
28725;DHT22;43472;48.980;9.646;2022-12-07T02:32:15;5.60;99.90
28725;DHT22;43472;48.980;9.646;2022-12-07T02:37:32;5.50;99.90
28725;DHT22;43472;48.980;9.646;2022-12-07T02:42:44;5.60;99.90
28725;DHT22;43472;48.980;9.646;2022-12-07T02:47:49;5.50;99.90
28725;DHT22;43472;48.980;9.646;2022-12-07T02:52:52;5.40;99.90
28725;DHT22;43472;48.980;9.646;2022-12-07T02:58:20;5.40;99.90
28725;DHT22;43472;48.980;9.646;2022-12-07T03:03:23;5.20;99.90
28725;DHT22;43472;48.980;9.646;2022-12-07T03:08:57;5.20;99.90
28725;DHT22;43472;48.980;9.646;2022-12-07T03:14:24;5.10;99.90
28725;DHT22;43472;48.980;9.646;2022-12-07T03:19:27;5.10;99.90
28725;DHT22;43472;48.980;9.646;2022-12-07T03:24:33;5.10;99.90
28725;DHT22;43472;48.980;9.646;2022-12-07T03:29:41;5.10;99.90
28725;DHT22;43472;48.980;9.646;2022-12-07T03:34:53;5.10;99.90
28725;DHT22;43472;48.980;9.646;2022-12-07T03:40:07;5.10;99.90
28725;DHT22;43472;48.980;9.646;2022-12-07T03:45:13;5.00;99.90
28725;DHT22;43472;48.980;9.646;2022-12-07T03:55:38;5.10;99.90
28725;DHT22;43472;48.980;9.646;2022-12-07T04:00:42;4.60;99.90
28725;DHT22;43472;48.980;9.646;2022-12-07T04:05:44;5.00;99.90
28725;DHT22;43472;48.980;9.646;2022-12-07T04:10:46;4.70;99.90
28725;DHT22;43472;48.980;9.646;2022-12-07T04:41:05;5.40;99.90
28725;DHT22;43472;48.980;9.646;2022-12-07T05:01:15;5.40;99.90
28725;DHT22;43472;48.980;9.646;2022-12-07T05:06:18;5.30;99.90
28725;DHT22;43472;48.980;9.646;2022-12-07T05:11:20;5.10;99.90
28725;DHT22;43472;48.980;9.646;2022-12-07T05:16:40;5.30;99.90
28725;DHT22;43472;48.980;9.646;2022-12-07T05:21:43;5.20;99.90
28725;DHT22;43472;48.980;9.646;2022-12-07T05:26:45;5.30;99.90
28725;DHT22;43472;48.980;9.646;2022-12-07T05:36:49;5.30;99.90
28725;DHT22;43472;48.980;9.646;2022-12-07T05:41:51;5.50;99.90
28725;DHT22;43472;48.980;9.646;2022-12-07T05:47:13;5.30;99.90
28725;DHT22;43472;48.980;9.646;2022-12-07T05:52:15;5.20;99.90
28725;DHT22;43472;48.980;9.646;2022-12-07T05:57:17;5.30;99.90
28725;DHT22;43472;48.980;9.646;2022-12-07T06:02:19;5.40;99.90
28725;DHT22;43472;48.980;9.646;2022-12-07T06:12:23;5.40;99.90
28725;DHT22;43472;48.980;9.646;2022-12-07T06:17:39;5.50;99.90
28725;DHT22;43472;48.980;9.646;2022-12-07T06:22:42;5.40;99.90
28725;DHT22;43472;48.980;9.646;2022-12-07T06:27:43;5.30;99.90
28725;DHT22;43472;48.980;9.646;2022-12-07T06:32:45;5.30;99.90
28725;DHT22;43472;48.980;9.646;2022-12-07T06:52:54;5.30;99.90
28725;DHT22;43472;48.980;9.646;2022-12-07T07:13:22;5.20;99.90
28725;DHT22;43472;48.980;9.646;2022-12-07T07:23:26;5.30;99.90
28725;DHT22;43472;48.980;9.646;2022-12-07T07:43:35;5.20;99.90
28725;DHT22;43472;48.980;9.646;2022-12-07T08:18:50;5.20;99.90
28725;DHT22;43472;48.980;9.646;2022-12-07T08:23:52;5.10;99.90
28725;DHT22;43472;48.980;9.646;2022-12-07T08:28:54;5.20;99.90
28725;DHT22;43472;48.980;9.646;2022-12-07T08:33:56;5.40;99.90
28725;DHT22;43472;48.980;9.646;2022-12-07T08:38:58;5.50;99.90
28725;DHT22;43472;48.980;9.646;2022-12-07T08:44:21;5.60;99.90
28725;DHT22;43472;48.980;9.646;2022-12-07T08:49:27;5.40;99.90
28725;DHT22;43472;48.980;9.646;2022-12-07T08:54:34;5.70;99.90
28725;DHT22;43472;48.980;9.646;2022-12-07T08:59:37;5.10;99.90
28725;DHT22;43472;48.980;9.646;2022-12-07T09:04:39;5.80;99.90
28725;DHT22;43472;48.980;9.646;2022-12-07T09:14:43;5.90;99.90
28725;DHT22;43472;48.980;9.646;2022-12-07T09:24:47;5.50;99.90
28725;DHT22;43472;48.980;9.646;2022-12-07T09:50:10;5.90;99.90
28725;DHT22;43472;48.980;9.646;2022-12-07T09:55:16;5.90;99.90
28725;DHT22;43472;48.980;9.646;2022-12-07T10:00:20;6.00;99.90
28725;DHT22;43472;48.980;9.646;2022-12-07T10:05:37;5.90;99.90
28725;DHT22;43472;48.980;9.646;2022-12-07T10:20:48;5.80;99.90
28725;DHT22;43472;48.980;9.646;2022-12-07T10:25:50;5.90;99.90
28725;DHT22;43472;48.980;9.646;2022-12-07T10:31:00;5.60;99.90
28725;DHT22;43472;48.980;9.646;2022-12-07T10:36:36;5.80;99.90
28725;DHT22;43472;48.980;9.646;2022-12-07T10:42:02;5.60;99.90
28725;DHT22;43472;48.980;9.646;2022-12-07T10:47:42;5.70;99.90
28725;DHT22;43472;48.980;9.646;2022-12-07T10:58:09;6.00;99.90
28725;DHT22;43472;48.980;9.646;2022-12-07T11:03:46;6.10;99.90
28725;DHT22;43472;48.980;9.646;2022-12-07T11:09:00;5.90;99.90
28725;DHT22;43472;48.980;9.646;2022-12-07T11:30:48;6.20;99.90
28725;DHT22;43472;48.980;9.646;2022-12-07T11:41:05;5.60;99.90
28725;DHT22;43472;48.980;9.646;2022-12-07T11:46:17;5.70;99.90
28725;DHT22;43472;48.980;9.646;2022-12-07T11:51:21;6.00;99.90
28725;DHT22;43472;48.980;9.646;2022-12-07T11:56:26;5.80;99.90
28725;DHT22;43472;48.980;9.646;2022-12-07T12:06:35;5.60;99.90
28725;DHT22;43472;48.980;9.646;2022-12-07T12:22:14;6.00;99.90
28725;DHT22;43472;48.980;9.646;2022-12-07T12:27:29;6.00;99.90
28725;DHT22;43472;48.980;9.646;2022-12-07T12:32:45;6.40;99.90
28725;DHT22;43472;48.980;9.646;2022-12-07T12:37:47;6.30;99.90
28725;DHT22;43472;48.980;9.646;2022-12-07T12:42:53;6.30;99.90
28725;DHT22;43472;48.980;9.646;2022-12-07T12:48:26;6.30;99.90
28725;DHT22;43472;48.980;9.646;2022-12-07T12:53:26;6.10;99.90
28725;DHT22;43472;48.980;9.646;2022-12-07T12:58:31;6.30;99.90
28725;DHT22;43472;48.980;9.646;2022-12-07T13:03:34;6.20;99.90
28725;DHT22;43472;48.980;9.646;2022-12-07T13:08:40;6.10;99.90
28725;DHT22;43472;48.980;9.646;2022-12-07T13:13:43;6.00;99.90
28725;DHT22;43472;48.980;9.646;2022-12-07T13:18:44;6.10;99.90
28725;DHT22;43472;48.980;9.646;2022-12-07T13:39:00;5.80;99.90
28725;DHT22;43472;48.980;9.646;2022-12-07T13:44:14;5.60;99.90
28725;DHT22;43472;48.980;9.646;2022-12-07T13:49:22;5.90;99.90
28725;DHT22;43472;48.980;9.646;2022-12-07T13:54:24;5.90;99.90
28725;DHT22;43472;48.980;9.646;2022-12-07T13:59:26;7.60;99.90
28725;DHT22;43472;48.980;9.646;2022-12-07T14:04:36;6.10;99.90
28725;DHT22;43472;48.980;9.646;2022-12-07T14:09:38;6.10;99.90
28725;DHT22;43472;48.980;9.646;2022-12-07T14:14:47;6.30;99.90
28725;DHT22;43472;48.980;9.646;2022-12-07T14:20:00;5.90;99.90
28725;DHT22;43472;48.980;9.646;2022-12-07T14:25:14;5.90;99.90
28725;DHT22;43472;48.980;9.646;2022-12-07T14:30:18;6.00;99.90
28725;DHT22;43472;48.980;9.646;2022-12-07T14:35:20;6.20;99.90
28725;DHT22;43472;48.980;9.646;2022-12-07T14:40:24;6.00;99.90
28725;DHT22;43472;48.980;9.646;2022-12-07T14:45:26;6.20;99.90
28725;DHT22;43472;48.980;9.646;2022-12-07T14:50:28;6.30;99.90
28725;DHT22;43472;48.980;9.646;2022-12-07T15:00:33;6.20;99.90
28725;DHT22;43472;48.980;9.646;2022-12-07T15:05:36;6.20;99.90
28725;DHT22;43472;48.980;9.646;2022-12-07T15:15:41;6.20;99.90
28725;DHT22;43472;48.980;9.646;2022-12-07T15:20:44;6.20;99.90
28725;DHT22;43472;48.980;9.646;2022-12-07T15:25:47;6.20;99.90
28725;DHT22;43472;48.980;9.646;2022-12-07T15:35:51;6.30;99.90
28725;DHT22;43472;48.980;9.646;2022-12-07T15:40:53;6.20;99.90
28725;DHT22;43472;48.980;9.646;2022-12-07T15:51:07;6.30;99.90
28725;DHT22;43472;48.980;9.646;2022-12-07T15:56:09;4.10;99.90
28725;DHT22;43472;48.980;9.646;2022-12-07T16:01:17;6.10;99.90
28725;DHT22;43472;48.980;9.646;2022-12-07T16:06:19;6.10;99.90
28725;DHT22;43472;48.980;9.646;2022-12-07T16:11:21;6.00;99.90
28725;DHT22;43472;48.980;9.646;2022-12-07T16:16:23;5.90;99.90
28725;DHT22;43472;48.980;9.646;2022-12-07T16:26:27;5.40;99.90
28725;DHT22;43472;48.980;9.646;2022-12-07T16:36:31;5.30;99.90
28725;DHT22;43472;48.980;9.646;2022-12-07T17:02:25;5.40;99.90
28725;DHT22;43472;48.980;9.646;2022-12-07T17:12:29;5.40;99.90
28725;DHT22;43472;48.980;9.646;2022-12-07T17:17:31;5.00;99.90
28725;DHT22;43472;48.980;9.646;2022-12-07T17:37:39;5.50;99.90
28725;DHT22;43472;48.980;9.646;2022-12-07T17:42:44;5.50;99.90
28725;DHT22;43472;48.980;9.646;2022-12-07T17:47:48;5.40;99.90
28725;DHT22;43472;48.980;9.646;2022-12-07T17:52:50;5.40;99.90
28725;DHT22;43472;48.980;9.646;2022-12-07T17:58:10;5.30;99.90
28725;DHT22;43472;48.980;9.646;2022-12-07T18:08:14;5.40;99.90
28725;DHT22;43472;48.980;9.646;2022-12-07T18:13:16;5.50;99.90
28725;DHT22;43472;48.980;9.646;2022-12-07T18:23:40;5.50;99.90
28725;DHT22;43472;48.980;9.646;2022-12-07T18:28:43;5.40;99.90
28725;DHT22;43472;48.980;9.646;2022-12-07T18:33:45;5.50;99.90
28725;DHT22;43472;48.980;9.646;2022-12-07T18:38:47;5.50;99.90
28725;DHT22;43472;48.980;9.646;2022-12-07T18:43:49;5.50;99.90
28725;DHT22;43472;48.980;9.646;2022-12-07T18:48:51;5.40;99.90
28725;DHT22;43472;48.980;9.646;2022-12-07T18:53:56;5.40;99.90
28725;DHT22;43472;48.980;9.646;2022-12-07T18:59:00;5.30;99.90
28725;DHT22;43472;48.980;9.646;2022-12-07T19:09:43;4.80;99.90
28725;DHT22;43472;48.980;9.646;2022-12-07T19:14:45;5.20;99.90
28725;DHT22;43472;48.980;9.646;2022-12-07T19:19:47;5.30;99.90
28725;DHT22;43472;48.980;9.646;2022-12-07T19:24:51;5.10;99.90
28725;DHT22;43472;48.980;9.646;2022-12-07T19:34:55;5.30;99.90
28725;DHT22;43472;48.980;9.646;2022-12-07T19:39:57;5.40;99.90
28725;DHT22;43472;48.980;9.646;2022-12-07T19:44:59;5.30;99.90
28725;DHT22;43472;48.980;9.646;2022-12-07T19:50:02;5.30;99.90
28725;DHT22;43472;48.980;9.646;2022-12-07T20:00:07;5.20;99.90
28725;DHT22;43472;48.980;9.646;2022-12-07T20:05:10;5.30;99.90
28725;DHT22;43472;48.980;9.646;2022-12-07T20:20:17;5.30;99.90
28725;DHT22;43472;48.980;9.646;2022-12-07T20:45:28;5.20;99.90
28725;DHT22;43472;48.980;9.646;2022-12-07T20:50:30;5.10;99.90
28725;DHT22;43472;48.980;9.646;2022-12-07T20:55:33;5.20;99.90
28725;DHT22;43472;48.980;9.646;2022-12-07T21:00:35;5.10;99.90
28725;DHT22;43472;48.980;9.646;2022-12-07T21:05:37;5.20;99.90
28725;DHT22;43472;48.980;9.646;2022-12-07T21:10:39;5.30;99.90
28725;DHT22;43472;48.980;9.646;2022-12-07T21:15:41;5.30;99.90
28725;DHT22;43472;48.980;9.646;2022-12-07T21:20:43;5.30;99.90
28725;DHT22;43472;48.980;9.646;2022-12-07T21:30:47;5.20;99.90
28725;DHT22;43472;48.980;9.646;2022-12-07T21:36:11;5.30;99.90
28725;DHT22;43472;48.980;9.646;2022-12-07T21:41:17;5.30;99.90
28725;DHT22;43472;48.980;9.646;2022-12-07T21:46:21;5.00;99.90
28725;DHT22;43472;48.980;9.646;2022-12-07T21:56:36;5.00;99.90
28725;DHT22;43472;48.980;9.646;2022-12-07T22:01:39;5.00;99.90
28725;DHT22;43472;48.980;9.646;2022-12-07T22:06:43;4.80;99.90
28725;DHT22;43472;48.980;9.646;2022-12-07T22:11:45;4.60;99.90
28725;DHT22;43472;48.980;9.646;2022-12-07T22:16:47;4.50;99.90
28725;DHT22;43472;48.980;9.646;2022-12-07T22:57:04;4.00;99.90
28725;DHT22;43472;48.980;9.646;2022-12-07T23:07:08;4.20;99.90
28725;DHT22;43472;48.980;9.646;2022-12-07T23:17:33;4.20;99.90
28725;DHT22;43472;48.980;9.646;2022-12-07T23:27:37;3.90;99.90
28725;DHT22;43472;48.980;9.646;2022-12-07T23:47:46;3.80;99.90
28725;DHT22;43472;48.980;9.646;2022-12-07T23:57:50;3.70;99.90
